sensor_id;sensor_type;location;lat;lon;timestamp;P1;durP1;ratioP1;P2;durP2;ratioP2
77276;SDS011;66330;52.166;9.978;2023-05-08T00:00:19;10.40;;;9.50;;
77276;SDS011;66330;52.166;9.978;2023-05-08T00:02:45;10.90;;;9.90;;
77276;SDS011;66330;52.166;9.978;2023-05-08T00:05:11;10.60;;;9.70;;
77276;SDS011;66330;52.166;9.978;2023-05-08T00:07:36;10.57;;;9.47;;
77276;SDS011;66330;52.166;9.978;2023-05-08T00:10:05;9.70;;;9.00;;
77276;SDS011;66330;52.166;9.978;2023-05-08T00:12:32;10.20;;;9.40;;
77276;SDS011;66330;52.166;9.978;2023-05-08T00:14:57;9.23;;;8.43;;
77276;SDS011;66330;52.166;9.978;2023-05-08T00:17:23;10.17;;;9.27;;
77276;SDS011;66330;52.166;9.978;2023-05-08T00:19:49;9.97;;;9.17;;
77276;SDS011;66330;52.166;9.978;2023-05-08T00:22:14;10.70;;;9.67;;
77276;SDS011;66330;52.166;9.978;2023-05-08T00:24:40;9.20;;;8.47;;
77276;SDS011;66330;52.166;9.978;2023-05-08T00:27:05;9.90;;;8.93;;
77276;SDS011;66330;52.166;9.978;2023-05-08T00:29:32;9.87;;;9.07;;
77276;SDS011;66330;52.166;9.978;2023-05-08T00:31:58;10.07;;;9.07;;
77276;SDS011;66330;52.166;9.978;2023-05-08T00:34:24;9.47;;;8.67;;
77276;SDS011;66330;52.166;9.978;2023-05-08T00:36:49;9.70;;;8.90;;
77276;SDS011;66330;52.166;9.978;2023-05-08T00:39:15;9.77;;;8.87;;
77276;SDS011;66330;52.166;9.978;2023-05-08T00:41:41;9.27;;;8.50;;
77276;SDS011;66330;52.166;9.978;2023-05-08T00:44:06;10.10;;;9.20;;
77276;SDS011;66330;52.166;9.978;2023-05-08T00:46:32;10.47;;;9.67;;
77276;SDS011;66330;52.166;9.978;2023-05-08T00:48:58;9.73;;;8.93;;
77276;SDS011;66330;52.166;9.978;2023-05-08T00:51:24;10.97;;;9.87;;
77276;SDS011;66330;52.166;9.978;2023-05-08T00:53:50;9.50;;;8.80;;
77276;SDS011;66330;52.166;9.978;2023-05-08T00:56:16;9.00;;;8.20;;
77276;SDS011;66330;52.166;9.978;2023-05-08T00:58:44;12.13;;;9.50;;
77276;SDS011;66330;52.166;9.978;2023-05-08T01:01:12;9.27;;;8.47;;
77276;SDS011;66330;52.166;9.978;2023-05-08T01:03:38;10.30;;;9.40;;
77276;SDS011;66330;52.166;9.978;2023-05-08T01:06:04;9.77;;;8.93;;
77276;SDS011;66330;52.166;9.978;2023-05-08T01:08:30;9.43;;;8.53;;
77276;SDS011;66330;52.166;9.978;2023-05-08T01:13:50;9.00;;;8.30;;
77276;SDS011;66330;52.166;9.978;2023-05-08T01:16:41;9.37;;;8.53;;
77276;SDS011;66330;52.166;9.978;2023-05-08T01:22:19;9.77;;;8.97;;
77276;SDS011;66330;52.166;9.978;2023-05-08T01:27:54;10.63;;;9.73;;
77276;SDS011;66330;52.166;9.978;2023-05-08T01:30:39;10.13;;;9.33;;
77276;SDS011;66330;52.166;9.978;2023-05-08T01:36:01;10.77;;;9.80;;
77276;SDS011;66330;52.166;9.978;2023-05-08T01:41:17;10.20;;;9.30;;
77276;SDS011;66330;52.166;9.978;2023-05-08T01:43:51;9.47;;;8.67;;
77276;SDS011;66330;52.166;9.978;2023-05-08T01:46:25;10.50;;;9.70;;
77276;SDS011;66330;52.166;9.978;2023-05-08T01:48:58;10.73;;;9.83;;
77276;SDS011;66330;52.166;9.978;2023-05-08T01:51:30;9.60;;;8.70;;
77276;SDS011;66330;52.166;9.978;2023-05-08T01:54:08;10.03;;;9.13;;
77276;SDS011;66330;52.166;9.978;2023-05-08T01:56:38;10.60;;;9.70;;
77276;SDS011;66330;52.166;9.978;2023-05-08T01:59:06;10.47;;;9.57;;
77276;SDS011;66330;52.166;9.978;2023-05-08T02:01:34;9.67;;;8.87;;
77276;SDS011;66330;52.166;9.978;2023-05-08T02:04:00;10.67;;;9.67;;
77276;SDS011;66330;52.166;9.978;2023-05-08T02:06:27;10.07;;;9.07;;
77276;SDS011;66330;52.166;9.978;2023-05-08T02:08:55;10.20;;;9.37;;
77276;SDS011;66330;52.166;9.978;2023-05-08T02:11:23;10.53;;;9.53;;
77276;SDS011;66330;52.166;9.978;2023-05-08T02:13:50;10.20;;;9.20;;
77276;SDS011;66330;52.166;9.978;2023-05-08T02:16:16;11.20;;;10.13;;
77276;SDS011;66330;52.166;9.978;2023-05-08T02:18:46;9.70;;;8.80;;
77276;SDS011;66330;52.166;9.978;2023-05-08T02:21:15;10.40;;;9.50;;
77276;SDS011;66330;52.166;9.978;2023-05-08T02:23:42;9.97;;;9.07;;
77276;SDS011;66330;52.166;9.978;2023-05-08T02:26:09;10.37;;;9.40;;
77276;SDS011;66330;52.166;9.978;2023-05-08T02:28:37;10.90;;;9.97;;
77276;SDS011;66330;52.166;9.978;2023-05-08T02:31:05;11.07;;;10.10;;
77276;SDS011;66330;52.166;9.978;2023-05-08T02:33:38;10.70;;;9.70;;
77276;SDS011;66330;52.166;9.978;2023-05-08T02:36:06;10.23;;;9.43;;
77276;SDS011;66330;52.166;9.978;2023-05-08T02:38:33;9.90;;;9.07;;
77276;SDS011;66330;52.166;9.978;2023-05-08T02:41:01;9.97;;;9.07;;
77276;SDS011;66330;52.166;9.978;2023-05-08T02:43:29;9.67;;;8.87;;
77276;SDS011;66330;52.166;9.978;2023-05-08T02:45:58;11.20;;;10.10;;
77276;SDS011;66330;52.166;9.978;2023-05-08T02:54:32;12.17;;;10.20;;
77276;SDS011;66330;52.166;9.978;2023-05-08T03:02:39;13.77;;;12.37;;
77276;SDS011;66330;52.166;9.978;2023-05-08T03:05:13;11.73;;;10.53;;
77276;SDS011;66330;52.166;9.978;2023-05-08T03:07:44;11.80;;;10.70;;
77276;SDS011;66330;52.166;9.978;2023-05-08T03:10:14;11.70;;;10.70;;
77276;SDS011;66330;52.166;9.978;2023-05-08T03:12:42;11.80;;;10.47;;
77276;SDS011;66330;52.166;9.978;2023-05-08T03:17:57;12.10;;;11.00;;
77276;SDS011;66330;52.166;9.978;2023-05-08T03:20:27;12.37;;;11.27;;
77276;SDS011;66330;52.166;9.978;2023-05-08T03:22:57;11.20;;;10.10;;
77276;SDS011;66330;52.166;9.978;2023-05-08T03:25:24;11.00;;;10.00;;
77276;SDS011;66330;52.166;9.978;2023-05-08T03:27:51;10.60;;;9.60;;
77276;SDS011;66330;52.166;9.978;2023-05-08T03:30:17;11.57;;;10.57;;
77276;SDS011;66330;52.166;9.978;2023-05-08T03:32:45;11.20;;;10.20;;
77276;SDS011;66330;52.166;9.978;2023-05-08T03:35:12;12.57;;;11.40;;
77276;SDS011;66330;52.166;9.978;2023-05-08T03:37:39;12.40;;;11.20;;
77276;SDS011;66330;52.166;9.978;2023-05-08T03:40:05;12.07;;;10.87;;
77276;SDS011;66330;52.166;9.978;2023-05-08T03:42:32;12.27;;;11.10;;
77276;SDS011;66330;52.166;9.978;2023-05-08T03:44:59;11.30;;;10.30;;
77276;SDS011;66330;52.166;9.978;2023-05-08T03:47:26;12.20;;;11.00;;
77276;SDS011;66330;52.166;9.978;2023-05-08T03:49:53;12.00;;;10.80;;
77276;SDS011;66330;52.166;9.978;2023-05-08T03:52:19;12.00;;;10.83;;
77276;SDS011;66330;52.166;9.978;2023-05-08T03:54:44;21.30;;;19.20;;
77276;SDS011;66330;52.166;9.978;2023-05-08T03:57:10;14.17;;;12.77;;
77276;SDS011;66330;52.166;9.978;2023-05-08T04:02:20;12.20;;;11.00;;
77276;SDS011;66330;52.166;9.978;2023-05-08T04:04:59;11.50;;;9.90;;
77276;SDS011;66330;52.166;9.978;2023-05-08T04:07:33;11.63;;;10.53;;
77276;SDS011;66330;52.166;9.978;2023-05-08T04:10:23;11.53;;;10.60;;
77276;SDS011;66330;52.166;9.978;2023-05-08T04:12:58;13.83;;;12.53;;
77276;SDS011;66330;52.166;9.978;2023-05-08T04:15:32;12.63;;;11.50;;
77276;SDS011;66330;52.166;9.978;2023-05-08T04:18:08;10.90;;;9.90;;
77276;SDS011;66330;52.166;9.978;2023-05-08T04:20:41;10.97;;;10.00;;
77276;SDS011;66330;52.166;9.978;2023-05-08T04:23:12;12.70;;;11.60;;
77276;SDS011;66330;52.166;9.978;2023-05-08T04:25:41;11.43;;;10.43;;
77276;SDS011;66330;52.166;9.978;2023-05-08T04:28:08;13.10;;;11.90;;
77276;SDS011;66330;52.166;9.978;2023-05-08T04:30:34;12.17;;;10.97;;
77276;SDS011;66330;52.166;9.978;2023-05-08T04:33:01;12.70;;;11.60;;
77276;SDS011;66330;52.166;9.978;2023-05-08T04:35:28;12.07;;;10.90;;
77276;SDS011;66330;52.166;9.978;2023-05-08T04:37:54;11.40;;;10.30;;
77276;SDS011;66330;52.166;9.978;2023-05-08T04:40:20;11.30;;;10.20;;
77276;SDS011;66330;52.166;9.978;2023-05-08T04:42:46;10.90;;;9.90;;
77276;SDS011;66330;52.166;9.978;2023-05-08T04:45:11;12.80;;;11.50;;
77276;SDS011;66330;52.166;9.978;2023-05-08T04:47:37;11.47;;;10.47;;
77276;SDS011;66330;52.166;9.978;2023-05-08T04:50:03;11.97;;;10.83;;
77276;SDS011;66330;52.166;9.978;2023-05-08T04:52:29;12.80;;;11.70;;
77276;SDS011;66330;52.166;9.978;2023-05-08T04:54:54;11.30;;;10.30;;
77276;SDS011;66330;52.166;9.978;2023-05-08T04:57:20;11.53;;;10.33;;
77276;SDS011;66330;52.166;9.978;2023-05-08T04:59:45;11.27;;;10.23;;
77276;SDS011;66330;52.166;9.978;2023-05-08T05:02:11;11.57;;;10.47;;
77276;SDS011;66330;52.166;9.978;2023-05-08T05:04:36;10.70;;;9.80;;
77276;SDS011;66330;52.166;9.978;2023-05-08T05:07:02;11.40;;;10.20;;
77276;SDS011;66330;52.166;9.978;2023-05-08T05:09:28;10.80;;;9.80;;
77276;SDS011;66330;52.166;9.978;2023-05-08T05:11:53;11.33;;;10.43;;
77276;SDS011;66330;52.166;9.978;2023-05-08T05:14:19;12.43;;;11.00;;
77276;SDS011;66330;52.166;9.978;2023-05-08T05:16:45;12.00;;;10.90;;
77276;SDS011;66330;52.166;9.978;2023-05-08T05:19:11;11.57;;;10.43;;
77276;SDS011;66330;52.166;9.978;2023-05-08T05:21:37;10.80;;;9.90;;
77276;SDS011;66330;52.166;9.978;2023-05-08T05:24:03;12.07;;;10.60;;
77276;SDS011;66330;52.166;9.978;2023-05-08T05:26:29;12.00;;;10.97;;
77276;SDS011;66330;52.166;9.978;2023-05-08T05:28:55;11.47;;;10.37;;
77276;SDS011;66330;52.166;9.978;2023-05-08T05:31:21;10.23;;;9.43;;
77276;SDS011;66330;52.166;9.978;2023-05-08T05:33:46;10.83;;;9.90;;
77276;SDS011;66330;52.166;9.978;2023-05-08T05:36:12;11.13;;;10.13;;
77276;SDS011;66330;52.166;9.978;2023-05-08T05:38:37;10.40;;;9.40;;
77276;SDS011;66330;52.166;9.978;2023-05-08T05:41:03;10.90;;;9.83;;
77276;SDS011;66330;52.166;9.978;2023-05-08T05:43:28;10.77;;;9.87;;
77276;SDS011;66330;52.166;9.978;2023-05-08T05:45:54;10.87;;;9.93;;
77276;SDS011;66330;52.166;9.978;2023-05-08T05:48:22;10.20;;;9.40;;
77276;SDS011;66330;52.166;9.978;2023-05-08T05:50:48;10.93;;;10.03;;
77276;SDS011;66330;52.166;9.978;2023-05-08T05:53:13;9.73;;;9.00;;
77276;SDS011;66330;52.166;9.978;2023-05-08T05:55:39;11.63;;;10.60;;
77276;SDS011;66330;52.166;9.978;2023-05-08T05:58:05;11.23;;;9.77;;
77276;SDS011;66330;52.166;9.978;2023-05-08T06:00:30;10.67;;;9.77;;
77276;SDS011;66330;52.166;9.978;2023-05-08T06:02:56;10.90;;;10.07;;
77276;SDS011;66330;52.166;9.978;2023-05-08T06:05:22;12.00;;;11.00;;
77276;SDS011;66330;52.166;9.978;2023-05-08T06:07:48;12.13;;;11.13;;
77276;SDS011;66330;52.166;9.978;2023-05-08T06:10:13;10.57;;;9.67;;
77276;SDS011;66330;52.166;9.978;2023-05-08T06:12:39;10.57;;;9.70;;
77276;SDS011;66330;52.166;9.978;2023-05-08T06:15:05;10.27;;;9.47;;
77276;SDS011;66330;52.166;9.978;2023-05-08T06:17:31;11.00;;;10.03;;
77276;SDS011;66330;52.166;9.978;2023-05-08T06:19:57;10.17;;;9.40;;
77276;SDS011;66330;52.166;9.978;2023-05-08T06:22:23;10.67;;;9.87;;
77276;SDS011;66330;52.166;9.978;2023-05-08T06:24:49;12.37;;;11.27;;
77276;SDS011;66330;52.166;9.978;2023-05-08T06:27:19;10.40;;;9.60;;
77276;SDS011;66330;52.166;9.978;2023-05-08T06:29:48;10.30;;;9.40;;
77276;SDS011;66330;52.166;9.978;2023-05-08T06:32:20;10.70;;;9.70;;
77276;SDS011;66330;52.166;9.978;2023-05-08T06:34:46;10.57;;;9.67;;
77276;SDS011;66330;52.166;9.978;2023-05-08T06:37:12;10.50;;;9.70;;
77276;SDS011;66330;52.166;9.978;2023-05-08T06:39:38;11.20;;;10.40;;
77276;SDS011;66330;52.166;9.978;2023-05-08T06:42:03;11.37;;;10.47;;
77276;SDS011;66330;52.166;9.978;2023-05-08T06:44:30;10.27;;;9.47;;
77276;SDS011;66330;52.166;9.978;2023-05-08T06:46:56;11.30;;;10.20;;
77276;SDS011;66330;52.166;9.978;2023-05-08T06:49:22;10.30;;;9.50;;
77276;SDS011;66330;52.166;9.978;2023-05-08T06:51:47;10.93;;;9.63;;
77276;SDS011;66330;52.166;9.978;2023-05-08T06:54:13;9.67;;;8.93;;
77276;SDS011;66330;52.166;9.978;2023-05-08T06:56:39;10.40;;;9.60;;
77276;SDS011;66330;52.166;9.978;2023-05-08T06:59:04;10.70;;;9.80;;
77276;SDS011;66330;52.166;9.978;2023-05-08T07:01:30;10.80;;;9.97;;
77276;SDS011;66330;52.166;9.978;2023-05-08T07:03:55;9.63;;;8.93;;
77276;SDS011;66330;52.166;9.978;2023-05-08T07:06:21;10.77;;;9.87;;
77276;SDS011;66330;52.166;9.978;2023-05-08T07:08:46;10.43;;;9.73;;
77276;SDS011;66330;52.166;9.978;2023-05-08T07:11:12;10.13;;;9.33;;
77276;SDS011;66330;52.166;9.978;2023-05-08T07:13:37;10.13;;;9.33;;
77276;SDS011;66330;52.166;9.978;2023-05-08T07:16:09;10.80;;;10.00;;
77276;SDS011;66330;52.166;9.978;2023-05-08T07:18:35;9.97;;;9.27;;
77276;SDS011;66330;52.166;9.978;2023-05-08T07:21:00;10.30;;;9.50;;
77276;SDS011;66330;52.166;9.978;2023-05-08T07:23:26;11.13;;;10.03;;
77276;SDS011;66330;52.166;9.978;2023-05-08T07:25:51;10.53;;;9.73;;
77276;SDS011;66330;52.166;9.978;2023-05-08T07:28:18;10.07;;;9.27;;
77276;SDS011;66330;52.166;9.978;2023-05-08T07:30:44;9.43;;;8.73;;
77276;SDS011;66330;52.166;9.978;2023-05-08T07:33:09;10.10;;;9.40;;
77276;SDS011;66330;52.166;9.978;2023-05-08T07:35:37;9.47;;;8.67;;
77276;SDS011;66330;52.166;9.978;2023-05-08T07:38:05;9.13;;;8.43;;
77276;SDS011;66330;52.166;9.978;2023-05-08T07:40:31;9.87;;;8.97;;
77276;SDS011;66330;52.166;9.978;2023-05-08T07:42:57;9.73;;;9.03;;
77276;SDS011;66330;52.166;9.978;2023-05-08T07:45:22;10.70;;;9.90;;
77276;SDS011;66330;52.166;9.978;2023-05-08T07:47:49;10.80;;;10.00;;
77276;SDS011;66330;52.166;9.978;2023-05-08T07:50:19;10.23;;;9.43;;
77276;SDS011;66330;52.166;9.978;2023-05-08T07:52:45;9.97;;;9.17;;
77276;SDS011;66330;52.166;9.978;2023-05-08T07:55:11;11.30;;;10.30;;
77276;SDS011;66330;52.166;9.978;2023-05-08T07:57:38;10.13;;;9.33;;
77276;SDS011;66330;52.166;9.978;2023-05-08T08:00:04;9.80;;;9.10;;
77276;SDS011;66330;52.166;9.978;2023-05-08T08:02:31;10.30;;;9.50;;
77276;SDS011;66330;52.166;9.978;2023-05-08T08:04:56;9.93;;;9.27;;
77276;SDS011;66330;52.166;9.978;2023-05-08T08:07:22;9.93;;;9.20;;
77276;SDS011;66330;52.166;9.978;2023-05-08T08:09:47;10.20;;;9.40;;
77276;SDS011;66330;52.166;9.978;2023-05-08T08:12:13;10.60;;;9.80;;
77276;SDS011;66330;52.166;9.978;2023-05-08T08:14:39;9.30;;;8.70;;
77276;SDS011;66330;52.166;9.978;2023-05-08T08:17:05;10.37;;;9.67;;
77276;SDS011;66330;52.166;9.978;2023-05-08T08:19:30;9.80;;;9.03;;
77276;SDS011;66330;52.166;9.978;2023-05-08T08:21:56;9.47;;;8.87;;
77276;SDS011;66330;52.166;9.978;2023-05-08T08:24:22;9.77;;;9.07;;
77276;SDS011;66330;52.166;9.978;2023-05-08T08:26:48;10.33;;;9.60;;
77276;SDS011;66330;52.166;9.978;2023-05-08T08:29:13;10.07;;;9.27;;
77276;SDS011;66330;52.166;9.978;2023-05-08T08:31:39;8.60;;;8.03;;
77276;SDS011;66330;52.166;9.978;2023-05-08T08:34:05;9.33;;;8.73;;
77276;SDS011;66330;52.166;9.978;2023-05-08T08:36:30;8.73;;;8.13;;
77276;SDS011;66330;52.166;9.978;2023-05-08T08:38:56;8.60;;;8.00;;
77276;SDS011;66330;52.166;9.978;2023-05-08T08:41:22;9.33;;;8.63;;
77276;SDS011;66330;52.166;9.978;2023-05-08T08:43:48;9.20;;;8.50;;
77276;SDS011;66330;52.166;9.978;2023-05-08T08:46:14;10.07;;;9.27;;
77276;SDS011;66330;52.166;9.978;2023-05-08T08:48:45;8.80;;;8.10;;
77276;SDS011;66330;52.166;9.978;2023-05-08T08:51:13;8.73;;;8.13;;
77276;SDS011;66330;52.166;9.978;2023-05-08T08:53:45;8.80;;;8.20;;
77276;SDS011;66330;52.166;9.978;2023-05-08T08:56:16;8.43;;;7.90;;
77276;SDS011;66330;52.166;9.978;2023-05-08T08:58:49;10.33;;;9.53;;
77276;SDS011;66330;52.166;9.978;2023-05-08T09:01:19;8.83;;;8.23;;
77276;SDS011;66330;52.166;9.978;2023-05-08T09:03:45;8.00;;;7.50;;
77276;SDS011;66330;52.166;9.978;2023-05-08T09:06:12;9.10;;;8.50;;
77276;SDS011;66330;52.166;9.978;2023-05-08T09:08:38;10.43;;;9.63;;
77276;SDS011;66330;52.166;9.978;2023-05-08T09:11:05;9.83;;;9.00;;
77276;SDS011;66330;52.166;9.978;2023-05-08T09:13:30;7.83;;;7.30;;
77276;SDS011;66330;52.166;9.978;2023-05-08T09:15:59;9.90;;;9.20;;
77276;SDS011;66330;52.166;9.978;2023-05-08T09:18:24;8.23;;;7.63;;
77276;SDS011;66330;52.166;9.978;2023-05-08T09:20:50;8.60;;;8.00;;
77276;SDS011;66330;52.166;9.978;2023-05-08T09:23:16;8.47;;;7.90;;
77276;SDS011;66330;52.166;9.978;2023-05-08T09:28:18;8.67;;;8.07;;
77276;SDS011;66330;52.166;9.978;2023-05-08T09:33:18;9.13;;;8.50;;
77276;SDS011;66330;52.166;9.978;2023-05-08T09:35:45;8.27;;;7.70;;
77276;SDS011;66330;52.166;9.978;2023-05-08T09:41:09;7.93;;;7.43;;
77276;SDS011;66330;52.166;9.978;2023-05-08T09:43:36;8.00;;;7.50;;
77276;SDS011;66330;52.166;9.978;2023-05-08T09:48:43;8.03;;;7.43;;
77276;SDS011;66330;52.166;9.978;2023-05-08T09:51:09;7.27;;;6.57;;
77276;SDS011;66330;52.166;9.978;2023-05-08T09:53:35;7.63;;;7.13;;
77276;SDS011;66330;52.166;9.978;2023-05-08T09:56:01;7.33;;;6.83;;
77276;SDS011;66330;52.166;9.978;2023-05-08T09:58:36;6.83;;;6.43;;
77276;SDS011;66330;52.166;9.978;2023-05-08T10:01:06;6.57;;;6.13;;
77276;SDS011;66330;52.166;9.978;2023-05-08T10:03:45;6.00;;;5.60;;
77276;SDS011;66330;52.166;9.978;2023-05-08T10:06:12;7.13;;;6.60;;
77276;SDS011;66330;52.166;9.978;2023-05-08T10:08:41;7.87;;;7.20;;
77276;SDS011;66330;52.166;9.978;2023-05-08T10:11:13;7.63;;;7.10;;
77276;SDS011;66330;52.166;9.978;2023-05-08T10:13:42;7.13;;;6.67;;
77276;SDS011;66330;52.166;9.978;2023-05-08T10:16:16;7.00;;;6.60;;
77276;SDS011;66330;52.166;9.978;2023-05-08T10:18:46;6.87;;;6.30;;
77276;SDS011;66330;52.166;9.978;2023-05-08T10:21:14;7.87;;;7.30;;
77276;SDS011;66330;52.166;9.978;2023-05-08T10:23:41;7.20;;;6.70;;
77276;SDS011;66330;52.166;9.978;2023-05-08T10:26:15;8.37;;;7.77;;
77276;SDS011;66330;52.166;9.978;2023-05-08T10:28:49;7.80;;;7.30;;
77276;SDS011;66330;52.166;9.978;2023-05-08T10:31:30;8.13;;;7.33;;
77276;SDS011;66330;52.166;9.978;2023-05-08T10:33:59;7.90;;;7.40;;
77276;SDS011;66330;52.166;9.978;2023-05-08T10:36:26;8.37;;;7.57;;
77276;SDS011;66330;52.166;9.978;2023-05-08T10:38:53;8.47;;;7.83;;
77276;SDS011;66330;52.166;9.978;2023-05-08T10:41:19;8.70;;;8.10;;
77276;SDS011;66330;52.166;9.978;2023-05-08T10:43:44;8.00;;;7.40;;
77276;SDS011;66330;52.166;9.978;2023-05-08T10:48:53;8.10;;;7.50;;
77276;SDS011;66330;52.166;9.978;2023-05-08T10:51:32;8.90;;;8.30;;
77276;SDS011;66330;52.166;9.978;2023-05-08T10:54:05;8.50;;;7.90;;
77276;SDS011;66330;52.166;9.978;2023-05-08T10:56:37;8.00;;;7.50;;
77276;SDS011;66330;52.166;9.978;2023-05-08T10:59:03;9.20;;;8.40;;
77276;SDS011;66330;52.166;9.978;2023-05-08T11:01:30;7.90;;;7.40;;
77276;SDS011;66330;52.166;9.978;2023-05-08T11:03:55;8.53;;;7.93;;
77276;SDS011;66330;52.166;9.978;2023-05-08T11:09:13;8.80;;;8.17;;
77276;SDS011;66330;52.166;9.978;2023-05-08T11:11:50;8.90;;;8.10;;
77276;SDS011;66330;52.166;9.978;2023-05-08T11:14:23;9.17;;;8.57;;
77276;SDS011;66330;52.166;9.978;2023-05-08T11:19:24;8.60;;;8.00;;
77276;SDS011;66330;52.166;9.978;2023-05-08T11:24:37;8.50;;;8.00;;
77276;SDS011;66330;52.166;9.978;2023-05-08T11:27:03;7.70;;;7.10;;
77276;SDS011;66330;52.166;9.978;2023-05-08T11:29:29;9.37;;;8.67;;
77276;SDS011;66330;52.166;9.978;2023-05-08T11:31:55;9.47;;;8.87;;
77276;SDS011;66330;52.166;9.978;2023-05-08T11:37:09;10.00;;;9.40;;
77276;SDS011;66330;52.166;9.978;2023-05-08T11:39:48;8.40;;;7.80;;
77276;SDS011;66330;52.166;9.978;2023-05-08T11:45:12;8.47;;;7.97;;
77276;SDS011;66330;52.166;9.978;2023-05-08T11:47:42;8.50;;;7.90;;
77276;SDS011;66330;52.166;9.978;2023-05-08T11:50:09;8.33;;;7.73;;
77276;SDS011;66330;52.166;9.978;2023-05-08T11:52:36;8.77;;;8.27;;
77276;SDS011;66330;52.166;9.978;2023-05-08T11:55:07;7.50;;;7.00;;
77276;SDS011;66330;52.166;9.978;2023-05-08T11:57:34;6.67;;;6.17;;
77276;SDS011;66330;52.166;9.978;2023-05-08T12:00:07;7.80;;;7.10;;
77276;SDS011;66330;52.166;9.978;2023-05-08T12:02:39;7.57;;;7.07;;
77276;SDS011;66330;52.166;9.978;2023-05-08T12:05:06;6.93;;;6.43;;
77276;SDS011;66330;52.166;9.978;2023-05-08T12:07:40;6.70;;;6.10;;
77276;SDS011;66330;52.166;9.978;2023-05-08T12:10:10;6.80;;;6.20;;
77276;SDS011;66330;52.166;9.978;2023-05-08T12:12:40;6.70;;;6.30;;
77276;SDS011;66330;52.166;9.978;2023-05-08T12:15:07;7.90;;;7.40;;
77276;SDS011;66330;52.166;9.978;2023-05-08T12:17:33;6.27;;;5.77;;
77276;SDS011;66330;52.166;9.978;2023-05-08T12:20:09;6.70;;;6.30;;
77276;SDS011;66330;52.166;9.978;2023-05-08T12:22:37;7.70;;;7.10;;
77276;SDS011;66330;52.166;9.978;2023-05-08T12:25:05;6.80;;;6.30;;
77276;SDS011;66330;52.166;9.978;2023-05-08T12:27:32;6.97;;;6.50;;
77276;SDS011;66330;52.166;9.978;2023-05-08T12:29:57;6.90;;;6.50;;
77276;SDS011;66330;52.166;9.978;2023-05-08T12:32:23;6.20;;;5.70;;
77276;SDS011;66330;52.166;9.978;2023-05-08T12:34:49;6.23;;;5.83;;
77276;SDS011;66330;52.166;9.978;2023-05-08T12:37:23;6.90;;;6.50;;
77276;SDS011;66330;52.166;9.978;2023-05-08T12:39:51;6.30;;;5.90;;
77276;SDS011;66330;52.166;9.978;2023-05-08T12:42:17;7.40;;;6.90;;
77276;SDS011;66330;52.166;9.978;2023-05-08T12:44:48;7.80;;;7.30;;
77276;SDS011;66330;52.166;9.978;2023-05-08T12:47:16;7.30;;;6.80;;
77276;SDS011;66330;52.166;9.978;2023-05-08T12:49:46;7.30;;;6.70;;
77276;SDS011;66330;52.166;9.978;2023-05-08T12:52:13;7.17;;;6.67;;
77276;SDS011;66330;52.166;9.978;2023-05-08T12:54:46;7.13;;;6.73;;
77276;SDS011;66330;52.166;9.978;2023-05-08T12:57:13;6.77;;;6.27;;
77276;SDS011;66330;52.166;9.978;2023-05-08T12:59:40;6.93;;;6.43;;
77276;SDS011;66330;52.166;9.978;2023-05-08T13:02:19;7.80;;;7.20;;
77276;SDS011;66330;52.166;9.978;2023-05-08T13:04:47;8.20;;;7.47;;
77276;SDS011;66330;52.166;9.978;2023-05-08T13:07:19;6.43;;;6.03;;
77276;SDS011;66330;52.166;9.978;2023-05-08T13:09:57;6.60;;;6.10;;
77276;SDS011;66330;52.166;9.978;2023-05-08T13:12:27;7.83;;;7.23;;
77276;SDS011;66330;52.166;9.978;2023-05-08T13:14:53;7.00;;;6.60;;
77276;SDS011;66330;52.166;9.978;2023-05-08T13:17:18;8.10;;;7.50;;
77276;SDS011;66330;52.166;9.978;2023-05-08T13:19:44;7.10;;;6.50;;
77276;SDS011;66330;52.166;9.978;2023-05-08T13:22:09;6.90;;;6.50;;
77276;SDS011;66330;52.166;9.978;2023-05-08T13:24:35;7.20;;;6.60;;
77276;SDS011;66330;52.166;9.978;2023-05-08T13:27:01;7.30;;;6.60;;
77276;SDS011;66330;52.166;9.978;2023-05-08T13:29:27;7.47;;;6.87;;
77276;SDS011;66330;52.166;9.978;2023-05-08T13:31:52;6.60;;;6.20;;
77276;SDS011;66330;52.166;9.978;2023-05-08T13:34:18;7.10;;;6.60;;
77276;SDS011;66330;52.166;9.978;2023-05-08T13:36:43;6.87;;;6.47;;
77276;SDS011;66330;52.166;9.978;2023-05-08T13:39:09;7.37;;;6.87;;
77276;SDS011;66330;52.166;9.978;2023-05-08T13:41:35;7.70;;;7.20;;
77276;SDS011;66330;52.166;9.978;2023-05-08T13:44:00;7.73;;;7.30;;
77276;SDS011;66330;52.166;9.978;2023-05-08T13:46:26;6.90;;;6.40;;
77276;SDS011;66330;52.166;9.978;2023-05-08T13:48:51;7.07;;;6.43;;
77276;SDS011;66330;52.166;9.978;2023-05-08T13:51:17;6.77;;;6.30;;
77276;SDS011;66330;52.166;9.978;2023-05-08T13:53:42;7.00;;;6.50;;
77276;SDS011;66330;52.166;9.978;2023-05-08T13:56:08;6.30;;;5.90;;
77276;SDS011;66330;52.166;9.978;2023-05-08T13:58:34;6.40;;;5.90;;
77276;SDS011;66330;52.166;9.978;2023-05-08T14:00:59;6.90;;;6.50;;
77276;SDS011;66330;52.166;9.978;2023-05-08T14:03:25;7.47;;;6.87;;
77276;SDS011;66330;52.166;9.978;2023-05-08T14:05:51;7.33;;;6.73;;
77276;SDS011;66330;52.166;9.978;2023-05-08T14:08:16;6.63;;;6.23;;
77276;SDS011;66330;52.166;9.978;2023-05-08T14:10:42;6.20;;;5.90;;
77276;SDS011;66330;52.166;9.978;2023-05-08T14:13:07;7.27;;;6.77;;
77276;SDS011;66330;52.166;9.978;2023-05-08T14:15:33;6.20;;;5.80;;
77276;SDS011;66330;52.166;9.978;2023-05-08T14:17:58;7.63;;;7.00;;
77276;SDS011;66330;52.166;9.978;2023-05-08T14:20:24;6.60;;;6.10;;
77276;SDS011;66330;52.166;9.978;2023-05-08T14:22:49;6.47;;;6.17;;
77276;SDS011;66330;52.166;9.978;2023-05-08T14:25:15;6.63;;;6.23;;
77276;SDS011;66330;52.166;9.978;2023-05-08T14:27:41;6.27;;;5.67;;
77276;SDS011;66330;52.166;9.978;2023-05-08T14:30:06;7.40;;;6.83;;
77276;SDS011;66330;52.166;9.978;2023-05-08T14:32:32;7.03;;;6.53;;
77276;SDS011;66330;52.166;9.978;2023-05-08T14:34:58;6.73;;;6.33;;
77276;SDS011;66330;52.166;9.978;2023-05-08T14:37:23;5.90;;;5.53;;
77276;SDS011;66330;52.166;9.978;2023-05-08T14:39:49;7.00;;;6.43;;
77276;SDS011;66330;52.166;9.978;2023-05-08T14:42:18;6.37;;;5.97;;
77276;SDS011;66330;52.166;9.978;2023-05-08T14:44:43;6.80;;;6.40;;
77276;SDS011;66330;52.166;9.978;2023-05-08T14:47:09;6.83;;;6.33;;
77276;SDS011;66330;52.166;9.978;2023-05-08T14:49:34;7.83;;;7.30;;
77276;SDS011;66330;52.166;9.978;2023-05-08T14:52:00;6.90;;;6.40;;
77276;SDS011;66330;52.166;9.978;2023-05-08T14:54:26;7.17;;;6.77;;
77276;SDS011;66330;52.166;9.978;2023-05-08T14:56:51;6.50;;;6.10;;
77276;SDS011;66330;52.166;9.978;2023-05-08T14:59:17;6.33;;;5.93;;
77276;SDS011;66330;52.166;9.978;2023-05-08T15:01:42;6.43;;;6.03;;
77276;SDS011;66330;52.166;9.978;2023-05-08T15:04:08;5.80;;;5.40;;
77276;SDS011;66330;52.166;9.978;2023-05-08T15:06:35;7.20;;;6.50;;
77276;SDS011;66330;52.166;9.978;2023-05-08T15:09:01;6.70;;;6.30;;
77276;SDS011;66330;52.166;9.978;2023-05-08T15:11:26;6.80;;;6.40;;
77276;SDS011;66330;52.166;9.978;2023-05-08T15:13:52;6.60;;;6.20;;
77276;SDS011;66330;52.166;9.978;2023-05-08T15:16:17;6.70;;;6.30;;
77276;SDS011;66330;52.166;9.978;2023-05-08T15:18:43;8.00;;;6.37;;
77276;SDS011;66330;52.166;9.978;2023-05-08T15:21:08;6.17;;;5.77;;
77276;SDS011;66330;52.166;9.978;2023-05-08T15:23:34;6.10;;;5.70;;
77276;SDS011;66330;52.166;9.978;2023-05-08T15:26:01;6.33;;;5.93;;
77276;SDS011;66330;52.166;9.978;2023-05-08T15:28:27;6.70;;;6.20;;
77276;SDS011;66330;52.166;9.978;2023-05-08T15:30:52;7.00;;;6.30;;
77276;SDS011;66330;52.166;9.978;2023-05-08T15:33:18;6.93;;;6.33;;
77276;SDS011;66330;52.166;9.978;2023-05-08T15:35:43;6.33;;;5.80;;
77276;SDS011;66330;52.166;9.978;2023-05-08T15:38:09;6.57;;;6.07;;